createdAt,value
2023-02-25T00:03:35.331Z,2.60
2023-02-25T00:09:05.491Z,2.40
2023-02-25T00:14:34.274Z,2.30
2023-02-25T00:20:05.763Z,2.20
2023-02-25T00:25:34.363Z,2.00
2023-02-25T00:31:13.517Z,1.90
2023-02-25T00:36:42.691Z,1.80
2023-02-25T00:42:19.439Z,1.70
2023-02-25T00:47:49.597Z,1.60
2023-02-25T00:53:17.837Z,1.60
2023-02-25T00:58:47.839Z,1.50
2023-02-25T01:04:16.885Z,1.30
2023-02-25T01:09:47.466Z,1.20
2023-02-25T01:15:20.266Z,1.10
2023-02-25T01:20:48.984Z,1.00
2023-02-25T01:26:17.842Z,0.90
2023-02-25T01:31:57.542Z,0.80
2023-02-25T01:37:25.418Z,0.80
2023-02-25T01:42:53.585Z,0.70
2023-02-25T01:48:28.084Z,0.70
2023-02-25T01:53:59.652Z,0.60
2023-02-25T01:59:30.130Z,0.60
2023-02-25T02:05:04.986Z,0.60
2023-02-25T02:10:33.853Z,0.60
2023-02-25T02:16:55.973Z,0.60
2023-02-25T02:23:49.941Z,0.60
2023-02-25T02:29:45.405Z,0.60
2023-02-25T02:35:53.672Z,0.60
2023-02-25T02:41:50.805Z,0.60
2023-02-25T02:47:38.053Z,0.50
2023-02-25T02:53:18.741Z,0.50
2023-02-25T02:59:08.025Z,0.50
2023-02-25T03:04:39.048Z,0.50
2023-02-25T03:10:10.626Z,0.50
2023-02-25T03:15:43.026Z,0.50
2023-02-25T03:21:20.431Z,0.50
2023-02-25T03:26:50.870Z,0.50
2023-02-25T03:32:20.866Z,0.50
2023-02-25T03:37:56.653Z,0.50
2023-02-25T03:43:36.184Z,0.50
2023-02-25T03:49:07.600Z,0.50
2023-02-25T03:54:36.695Z,0.50
2023-02-25T04:00:19.415Z,0.50
2023-02-25T04:05:48.719Z,0.50
2023-02-25T04:11:17.209Z,0.60
2023-02-25T04:16:46.492Z,0.60
2023-02-25T04:22:14.779Z,0.60
2023-02-25T04:27:42.847Z,0.60
2023-02-25T04:33:12.096Z,0.60
2023-02-25T04:38:39.895Z,0.60
2023-02-25T04:44:08.795Z,0.70
2023-02-25T04:49:44.749Z,0.60
2023-02-25T04:55:13.109Z,0.70
2023-02-25T05:00:49.168Z,0.60
2023-02-25T05:06:16.930Z,0.70
2023-02-25T05:11:45.661Z,0.60
2023-02-25T05:17:15.866Z,0.70
2023-02-25T05:22:43.775Z,0.70
2023-02-25T05:28:12.265Z,0.70
2023-02-25T05:33:41.022Z,0.80
2023-02-25T05:39:12.019Z,0.80
2023-02-25T05:44:39.837Z,0.80
2023-02-25T05:50:08.604Z,0.90
2023-02-25T05:55:42.127Z,0.90
2023-02-25T06:01:14.121Z,0.90
2023-02-25T06:06:42.436Z,0.90
2023-02-25T06:12:10.614Z,1.00
2023-02-25T06:17:38.777Z,1.00
2023-02-25T06:23:06.517Z,1.00
2023-02-25T06:28:35.877Z,1.00
2023-02-25T06:34:04.333Z,1.00
2023-02-25T06:39:32.606Z,1.10
2023-02-25T06:45:00.637Z,1.10
2023-02-25T06:50:28.659Z,1.20
2023-02-25T06:55:59.065Z,1.20
2023-02-25T07:01:27.740Z,1.30
2023-02-25T07:06:56.358Z,1.30
2023-02-25T07:12:25.085Z,1.40
2023-02-25T07:17:53.319Z,1.30
2023-02-25T07:23:21.330Z,1.40
2023-02-25T07:28:50.090Z,1.40
2023-02-25T07:34:19.354Z,1.50
2023-02-25T07:39:47.828Z,1.60
2023-02-25T07:45:17.953Z,1.60
2023-02-25T07:50:46.120Z,1.70
2023-02-25T07:56:19.891Z,1.80
2023-02-25T08:01:47.806Z,1.90
2023-02-25T08:07:16.259Z,2.00
2023-02-25T08:12:44.475Z,2.10
2023-02-25T08:18:12.708Z,2.10
2023-02-25T08:23:40.826Z,2.20
2023-02-25T08:29:08.844Z,2.20
2023-02-25T08:34:36.710Z,2.20
2023-02-25T08:40:10.009Z,2.30
2023-02-25T08:45:39.139Z,2.30
2023-02-25T08:51:09.445Z,2.40
2023-02-25T08:56:38.408Z,2.60
2023-02-25T09:02:07.984Z,2.70
2023-02-25T09:07:36.706Z,2.80
2023-02-25T09:13:04.562Z,2.90
2023-02-25T09:18:32.962Z,3.00
2023-02-25T09:24:04.747Z,3.10
2023-02-25T09:29:33.700Z,3.10
2023-02-25T09:35:02.845Z,3.20
2023-02-25T09:40:32.268Z,3.10
2023-02-25T09:46:18.895Z,3.00
2023-02-25T09:52:01.624Z,3.10
2023-02-25T09:57:32.187Z,2.90
2023-02-25T10:03:16.916Z,2.90
2023-02-25T10:08:57.465Z,2.80
2023-02-25T10:14:28.309Z,2.70
2023-02-25T10:20:18.567Z,2.60
2023-02-25T10:25:55.959Z,2.70
2023-02-25T10:31:24.768Z,2.80
2023-02-25T10:37:00.320Z,3.10
2023-02-25T10:42:31.881Z,3.20
2023-02-25T10:48:22.294Z,3.30
2023-02-25T10:53:53.877Z,3.30
2023-02-25T10:59:31.334Z,3.50
2023-02-25T11:05:01.830Z,3.70
2023-02-25T11:10:30.629Z,3.70
2023-02-25T11:16:06.925Z,3.80
2023-02-25T11:21:38.201Z,4.00
2023-02-25T11:27:19.125Z,4.10
2023-02-25T11:32:54.752Z,4.20
2023-02-25T11:38:28.251Z,4.40
2023-02-25T11:43:56.158Z,4.30
2023-02-25T11:49:49.957Z,4.20
2023-02-25T11:55:30.254Z,4.20
2023-02-25T12:01:08.477Z,4.30
2023-02-25T12:07:27.489Z,4.40
2023-02-25T12:13:43.773Z,4.60
2023-02-25T12:19:51.660Z,4.90
2023-02-25T12:25:48.355Z,5.30
2023-02-25T12:32:18.663Z,5.80
2023-02-25T12:38:35.304Z,6.10
2023-02-25T12:44:34.398Z,6.10
2023-02-25T12:50:36.005Z,5.90
2023-02-25T12:56:53.331Z,5.30
2023-02-25T13:02:36.308Z,5.00
2023-02-25T13:08:13.078Z,5.00
2023-02-25T13:14:09.052Z,5.10
2023-02-25T13:20:06.270Z,4.90
2023-02-25T13:26:12.465Z,5.10
2023-02-25T13:32:09.345Z,5.40
2023-02-25T13:38:38.307Z,6.30
2023-02-25T13:44:09.151Z,6.90
2023-02-25T13:49:56.171Z,7.40
2023-02-25T13:56:17.561Z,7.00
2023-02-25T14:02:26.486Z,7.70
2023-02-25T14:08:54.490Z,6.60
2023-02-25T14:14:48.534Z,5.90
2023-02-25T14:21:03.635Z,5.30
2023-02-25T14:26:55.053Z,5.00
2023-02-25T14:33:12.441Z,4.60
2023-02-25T14:38:55.858Z,4.50
2023-02-25T14:44:42.071Z,4.20
2023-02-25T14:50:27.602Z,4.10
2023-02-25T14:56:18.776Z,4.00
2023-02-25T15:02:16.590Z,3.90
2023-02-25T15:08:21.234Z,3.80
2023-02-25T15:14:14.830Z,3.70
2023-02-25T15:20:04.382Z,3.70
2023-02-25T15:26:04.958Z,3.60
2023-02-25T15:31:39.093Z,3.60
2023-02-25T15:37:37.219Z,3.50
2023-02-25T15:43:10.827Z,3.40
2023-02-25T15:49:03.030Z,3.40
2023-02-25T15:54:31.771Z,3.50
2023-02-25T16:00:00.433Z,3.50
2023-02-25T16:05:34.269Z,3.40
2023-02-25T16:11:05.822Z,3.50
2023-02-25T16:16:35.696Z,3.40
2023-02-25T16:22:09.330Z,3.30
2023-02-25T16:28:01.792Z,3.30
2023-02-25T16:33:32.013Z,3.30
2023-02-25T16:39:06.964Z,3.20
2023-02-25T16:44:38.956Z,3.30
2023-02-25T16:50:19.144Z,3.20
2023-02-25T16:55:48.376Z,3.20
2023-02-25T17:01:23.321Z,3.10
2023-02-25T17:07:12.227Z,3.10
2023-02-25T17:12:45.870Z,3.00
2023-02-25T17:18:47.248Z,2.90
2023-02-25T17:24:21.341Z,2.90
2023-02-25T17:29:49.693Z,2.80
2023-02-25T17:35:18.836Z,2.80
2023-02-25T17:40:47.442Z,2.80
2023-02-25T17:46:36.228Z,2.80
2023-02-25T17:52:19.656Z,2.80
2023-02-25T17:57:48.162Z,2.80
2023-02-25T18:03:26.302Z,2.10
2023-02-25T18:08:55.445Z,1.60
2023-02-25T18:15:02.213Z,1.10
2023-02-25T18:20:36.678Z,0.80
2023-02-25T18:26:20.996Z,0.40
2023-02-25T18:31:48.904Z,0.10
2023-02-25T18:37:20.445Z,-0.10
2023-02-25T18:42:48.282Z,-0.20
2023-02-25T18:48:17.506Z,-0.30
2023-02-25T18:53:46.851Z,-0.40
2023-02-25T18:59:15.052Z,-0.50
2023-02-25T19:04:44.965Z,-0.50
2023-02-25T19:10:34.444Z,-0.50
2023-02-25T19:16:03.181Z,-0.50
2023-02-25T19:21:32.112Z,-0.60
2023-02-25T19:27:00.650Z,-0.60
2023-02-25T19:32:28.594Z,-0.50
2023-02-25T19:37:56.791Z,-0.50
2023-02-25T19:43:25.140Z,-0.40
2023-02-25T19:48:53.507Z,-0.30
2023-02-25T19:54:23.008Z,-0.30
2023-02-25T19:59:52.678Z,-0.30
2023-02-25T20:05:24.131Z,-0.30
2023-02-25T20:10:54.348Z,-0.20
2023-02-25T20:16:25.377Z,-0.20
2023-02-25T20:21:53.955Z,-0.20
2023-02-25T20:27:22.153Z,-0.20
2023-02-25T20:32:50.318Z,-0.20
2023-02-25T20:38:28.772Z,-0.10
2023-02-25T20:43:57.842Z,-0.10
2023-02-25T20:49:27.084Z,-0.10
2023-02-25T20:54:56.156Z,-0.10
2023-02-25T21:00:24.217Z,-0.10
2023-02-25T21:05:52.447Z,-0.40
2023-02-25T21:11:26.487Z,-0.60
2023-02-25T21:16:55.026Z,-0.70
2023-02-25T21:22:23.450Z,-0.80
2023-02-25T21:27:51.216Z,-0.90
2023-02-25T21:33:21.242Z,-0.90
2023-02-25T21:38:51.286Z,-0.90
2023-02-25T21:44:19.959Z,-1.00
2023-02-25T21:49:48.385Z,-1.00
2023-02-25T21:55:19.227Z,-1.00
2023-02-25T22:00:47.683Z,-1.00
2023-02-25T22:06:16.151Z,-1.00
2023-02-25T22:11:44.813Z,-1.00
2023-02-25T22:17:16.207Z,-1.00
2023-02-25T22:22:47.463Z,-0.90
2023-02-25T22:28:16.228Z,-1.00
2023-02-25T22:33:46.852Z,-1.00
2023-02-25T22:39:16.175Z,-1.10
2023-02-25T22:44:44.735Z,-1.20
2023-02-25T22:50:12.896Z,-1.30
2023-02-25T22:55:41.503Z,-1.50
2023-02-25T23:01:10.568Z,-1.50
2023-02-25T23:06:44.333Z,-1.60
2023-02-25T23:12:13.212Z,-1.70
2023-02-25T23:17:41.248Z,-1.70
2023-02-25T23:23:09.647Z,-1.60
2023-02-25T23:28:37.743Z,-1.70
2023-02-25T23:34:12.030Z,-1.60
2023-02-25T23:39:40.570Z,-1.60
2023-02-25T23:45:10.792Z,-1.60
2023-02-25T23:50:38.805Z,-1.60
2023-02-25T23:56:10.228Z,-1.60
